Time;durP1;ratioP1;P1;durP2;ratioP2;P2;SDS_P1;SDS_P2;PMS_P1;PMS_P2;Temp;Humidity;BMP_temperature;BMP_pressure;BME280_temperature;BME280_humidity;BME280_pressure;Samples;Min_cycle;Max_cycle;Signal;HPM_P1;HPM_P2
2023/01/14 00:02:25;;;;;;;36.63;6.35;;;;;;;6.28;100.00;101593.47;5226392;28;20040;-76
2023/01/14 00:04:55;;;;;;;46.28;7.85;;;;;;;6.26;100.00;101596.22;5226398;28;20020;-76
2023/01/14 00:07:26;;;;;;;34.92;5.78;;;;;;;6.22;100.00;101584.13;5244449;28;20027;-76
2023/01/14 00:09:56;;;;;;;36.47;8.27;;;;;;;6.18;100.00;101585.34;5248138;28;20411;-76
2023/01/14 00:12:27;;;;;;;50.70;6.70;;;;;;;6.14;100.00;101589.22;5248414;28;20028;-76
2023/01/14 00:14:58;;;;;;;44.88;6.75;;;;;;;6.12;100.00;101586.66;5248444;28;20020;-76
2023/01/14 00:17:28;;;;;;;50.80;6.10;;;;;;;6.09;100.00;101581.56;5248132;28;20032;-76
2023/01/14 00:19:59;;;;;;;43.58;5.78;;;;;;;6.05;100.00;101585.44;5229940;28;20013;-76
2023/01/14 00:22:30;;;;;;;41.00;6.70;;;;;;;6.05;100.00;101590.78;5248320;28;20029;-76
2023/01/14 00:25:00;;;;;;;45.50;6.35;;;;;;;6.16;100.00;101581.94;5230407;28;20020;-76
2023/01/14 00:27:31;;;;;;;42.00;6.13;;;;;;;6.19;100.00;101584.38;5247593;28;20384;-75
2023/01/14 00:30:01;;;;;;;44.70;7.13;;;;;;;6.20;100.00;101586.06;5248244;28;20480;-76
2023/01/14 00:32:32;;;;;;;44.55;5.63;;;;;;;6.13;100.00;101577.72;5247569;28;20378;-76
2023/01/14 00:35:02;;;;;;;56.55;6.95;;;;;;;6.09;100.00;101586.06;5248137;28;20040;-76
2023/01/14 00:37:32;;;;;;;53.15;7.47;;;;;;;6.06;100.00;101587.13;5247637;28;20040;-75
2023/01/14 00:40:03;;;;;;;52.85;6.97;;;;;;;6.08;100.00;101592.34;5248147;28;20031;-76
2023/01/14 00:42:34;;;;;;;40.67;6.05;;;;;;;6.10;100.00;101596.59;5247645;28;20024;-76
2023/01/14 00:45:05;;;;;;;37.70;5.10;;;;;;;6.10;100.00;101585.09;5247948;28;20107;-76
2023/01/14 00:47:35;;;;;;;46.63;5.80;;;;;;;6.08;100.00;101579.88;5261071;28;20375;-76
2023/01/14 00:50:07;;;;;;;41.70;6.60;;;;;;;6.12;100.00;101578.66;5242597;28;20035;-76
2023/01/14 00:52:37;;;;;;;36.50;5.93;;;;;;;6.13;100.00;101576.88;5248420;28;20027;-76
2023/01/14 00:55:08;;;;;;;51.85;5.68;;;;;;;6.14;100.00;101594.53;5247680;28;20468;-75
2023/01/14 00:57:38;;;;;;;40.33;5.22;;;;;;;6.16;100.00;101589.94;5228905;28;20402;-76
2023/01/14 01:00:09;;;;;;;35.97;6.55;;;;;;;6.16;100.00;101589.94;5247286;28;20020;-76
2023/01/14 01:02:40;;;;;;;41.92;5.40;;;;;;;6.17;100.00;101576.47;5247390;28;20024;-76
2023/01/14 01:05:10;;;;;;;27.70;5.13;;;;;;;6.17;100.00;101575.63;5264772;28;20049;-76
2023/01/14 01:07:41;;;;;;;35.42;5.38;;;;;;;6.17;100.00;101579.13;5257306;28;20017;-76
2023/01/14 01:10:12;;;;;;;37.65;4.75;;;;;;;6.17;100.00;101579.13;5246689;28;20037;-76
2023/01/14 01:12:42;;;;;;;36.03;4.82;;;;;;;6.14;100.00;101575.88;5241870;28;20031;-76
2023/01/14 01:15:13;;;;;;;38.88;6.07;;;;;;;6.10;100.00;101571.75;5236667;28;20099;-76
2023/01/14 01:17:43;;;;;;;43.47;4.75;;;;;;;6.09;100.00;101570.91;5254624;28;20025;-76
2023/01/14 01:20:14;;;;;;;37.97;7.93;;;;;;;6.06;100.00;101562.31;5248249;28;20393;-76
2023/01/14 01:22:44;;;;;;;34.22;6.30;;;;;;;6.07;100.00;101558.66;5248286;28;20106;-76
2023/01/14 01:25:15;;;;;;;36.80;4.85;;;;;;;6.03;100.00;101562.56;5247764;28;20028;-76
2023/01/14 01:27:45;;;;;;;41.25;5.75;;;;;;;6.03;100.00;101560.75;5246934;28;20070;-76
2023/01/14 01:30:16;;;;;;;45.53;9.80;;;;;;;6.01;100.00;101565.31;5229380;28;20032;-76
2023/01/14 01:32:47;;;;;;;46.38;6.53;;;;;;;6.00;100.00;101563.63;5246575;28;20046;-76
2023/01/14 01:35:17;;;;;;;36.42;5.07;;;;;;;5.97;100.00;101554.09;5229050;28;20040;-76
2023/01/14 01:37:48;;;;;;;41.28;5.65;;;;;;;6.00;100.00;101549.47;5246542;28;20103;-76
2023/01/14 01:40:19;;;;;;;32.63;4.70;;;;;;;5.95;100.00;101556.00;5246756;28;20082;-76
2023/01/14 01:42:56;;;;;;;25.23;4.80;;;;;;;5.95;100.00;101555.16;5228657;28;20032;-76
2023/01/14 01:45:45;;;;;;;40.10;5.88;;;;;;;5.93;100.00;101565.09;5246364;28;20055;-76
2023/01/14 01:48:37;;;;;;;30.88;3.67;;;;;;;5.90;100.00;101576.78;5228543;28;20155;-76
2023/01/14 01:51:13;;;;;;;36.25;4.50;;;;;;;5.89;100.00;101564.44;5246252;28;20024;-76
2023/01/14 01:53:48;;;;;;;41.58;7.40;;;;;;;5.89;100.00;101564.44;5228384;28;20036;-75
2023/01/14 01:56:24;;;;;;;36.15;4.93;;;;;;;5.91;100.00;101554.53;5246323;28;20472;-76
2023/01/14 01:58:56;;;;;;;41.42;5.03;;;;;;;5.91;100.00;101554.53;5250572;28;20044;-76
2023/01/14 02:01:27;;;;;;;36.97;5.45;;;;;;;5.93;100.00;101547.28;5255243;28;20028;-76
2023/01/14 02:03:58;;;;;;;39.88;4.85;;;;;;;5.93;100.00;101549.97;5246443;28;20438;-76
2023/01/14 02:06:29;;;;;;;23.42;4.72;;;;;;;5.97;100.00;101547.88;5245542;28;20165;-76
2023/01/14 02:08:59;;;;;;;20.52;4.53;;;;;;;6.01;100.00;101543.19;5246321;28;20111;-76
2023/01/14 02:11:30;;;;;;;28.83;5.50;;;;;;;5.99;100.00;101534.47;5245786;28;20032;-76
2023/01/14 02:14:36;;;;;;;35.53;5.07;;;;;;;6.02;100.00;101520.88;5246387;28;20028;-76
2023/01/14 02:17:17;;;;;;;;;;;;;;;6.11;100.00;101518.34;5233380;28;20021;-76
2023/01/14 02:19:59;;;;;;;36.03;3.80;;;;;;;6.14;100.00;101517.28;5246125;28;19916;-76
2023/01/14 02:23:04;;;;;;;31.90;5.13;;;;;;;6.14;100.00;101509.28;5245893;28;20036;-76
2023/01/14 02:26:16;;;;;;;32.15;4.20;;;;;;;6.11;100.00;101497.03;5236216;28;20052;-76
2023/01/14 02:29:03;;;;;;;39.72;4.00;;;;;;;6.15;100.00;101487.00;5131292;28;20037;-76
2023/01/14 02:31:50;;;;;;;32.50;4.80;;;;;;;6.16;100.00;101494.84;5238902;28;20036;-76
2023/01/14 02:34:39;;;;;;;31.40;4.10;;;;;;;6.15;100.00;101490.50;5245635;28;20441;-76
2023/01/14 02:37:32;;;;;;;42.95;6.93;;;;;;;6.11;100.00;101486.38;5227363;28;20017;-76
2023/01/14 02:40:27;;;;;;;23.95;4.05;;;;;;;6.10;100.00;101490.03;5201632;28;20037;-76
2023/01/14 02:46:49;;;;;;;33.88;5.22;;;;;;;6.13;100.00;101479.13;5225931;28;20370;-76
2023/01/14 02:49:26;;;;;;;31.75;3.55;;;;;;;6.14;100.00;101474.66;5234632;28;20028;-76
2023/01/14 02:51:58;;;;;;;42.15;4.25;;;;;;;6.15;100.00;101461.19;5251324;28;20016;-76
2023/01/14 02:54:30;;;;;;;28.25;4.55;;;;;;;6.15;100.00;101452.38;5227553;28;20431;-76
2023/01/14 02:57:31;;;;;;;29.75;3.78;;;;;;;6.16;100.00;101457.56;5244822;28;20020;-76
2023/01/14 03:00:16;;;;;;;30.52;4.38;;;;;;;6.20;100.00;101443.03;5258500;28;20020;-76
2023/01/14 03:03:20;;;;;;;41.22;6.38;;;;;;;6.23;100.00;101439.28;5234637;28;20473;-76
2023/01/14 03:06:13;;;;;;;31.38;3.28;;;;;;;6.25;100.00;101426.66;5233933;28;20090;-76
2023/01/14 03:08:58;;;;;;;35.38;4.95;;;;;;;6.25;100.00;101423.16;5239922;28;20031;-76
2023/01/14 03:11:43;;;;;;;31.45;4.28;;;;;;;6.19;100.00;101421.84;5258298;28;20122;-76
2023/01/14 03:14:28;;;;;;;37.90;4.35;;;;;;;6.17;100.00;101411.28;5256606;28;20028;-76
2023/01/14 03:17:06;;;;;;;45.85;7.95;;;;;;;6.11;100.00;101402.97;5257514;28;20031;-76
2023/01/14 03:19:42;;;;;;;30.98;4.78;;;;;;;6.10;100.00;101402.13;5244966;28;20046;-76
2023/01/14 03:22:13;;;;;;;28.50;4.32;;;;;;;6.05;100.00;101396.31;5245015;28;20032;-76
2023/01/14 03:24:45;;;;;;;37.42;7.55;;;;;;;6.01;100.00;101386.88;5244900;28;20478;-76
2023/01/14 03:27:23;;;;;;;26.27;3.78;;;;;;;5.93;100.00;101392.81;5244475;28;20389;-76
2023/01/14 03:29:58;;;;;;;25.45;4.07;;;;;;;5.90;100.00;101386.84;5226603;28;20042;-76
2023/01/14 03:32:55;;;;;;;21.02;3.72;;;;;;;5.87;100.00;101385.31;5226593;28;20020;-76
2023/01/14 03:35:34;;;;;;;39.42;5.63;;;;;;;5.82;100.00;101376.81;5244982;28;20028;-76
2023/01/14 03:38:22;;;;;;;25.75;5.90;;;;;;;5.75;100.00;101372.94;5225855;28;20028;-76
2023/01/14 03:40:56;;;;;;;19.02;3.92;;;;;;;5.72;100.00;101371.41;5244348;28;20031;-76
2023/01/14 03:43:42;;;;;;;24.23;4.25;;;;;;;5.70;100.00;101367.16;5244869;28;20030;-76
2023/01/14 03:46:13;;;;;;;27.38;4.00;;;;;;;5.70;100.00;101364.50;5230728;28;20429;-76
2023/01/14 03:48:44;;;;;;;18.55;3.40;;;;;;;5.69;100.00;101357.47;5244152;28;20086;-76
2023/01/14 03:51:23;;;;;;;30.90;4.65;;;;;;;5.69;100.00;101357.47;5244504;28;20024;-76
2023/01/14 03:54:18;;;;;;;28.15;3.90;;;;;;;5.70;100.00;101348.50;5244351;28;20032;-76
2023/01/14 03:57:15;;;;;;;30.10;3.03;;;;;;;5.65;100.00;101340.88;5243587;28;20107;-76
2023/01/14 03:59:58;;;;;;;31.55;3.78;;;;;;;5.63;100.00;101326.03;5247871;28;20023;-76
2023/01/14 04:02:30;;;;;;;37.03;4.90;;;;;;;5.66;100.00;101339.91;5236607;28;20025;-76
2023/01/14 04:05:01;;;;;;;38.63;6.22;;;;;;;5.64;100.00;101336.53;5238581;28;20074;-76
2023/01/14 04:07:31;;;;;;;39.03;4.70;;;;;;;5.62;100.00;101325.19;5243868;28;20024;-76
2023/01/14 04:10:03;;;;;;;25.15;3.42;;;;;;;5.66;100.00;101315.13;5247177;28;20024;-76
2023/01/14 04:12:33;;;;;;;28.95;3.58;;;;;;;5.69;100.00;101306.91;5236935;28;20509;-76
2023/01/14 04:15:22;;;;;;;23.45;5.35;;;;;;;5.75;100.00;101302.88;5226494;28;20031;-76
2023/01/14 04:17:52;;;;;;;41.83;4.45;;;;;;;5.75;100.00;101293.09;5243814;28;20381;-76
2023/01/14 04:20:23;;;;;;;28.35;3.90;;;;;;;5.80;100.00;101292.72;5244289;28;20028;-76
2023/01/14 04:22:53;;;;;;;22.08;3.38;;;;;;;5.84;100.00;101276.38;5226175;28;20515;-76
2023/01/14 04:25:24;;;;;;;24.13;3.22;;;;;;;5.87;100.00;101275.25;5254014;28;20034;-76
2023/01/14 04:27:54;;;;;;;31.08;3.25;;;;;;;5.81;100.00;101267.78;5229342;28;20086;-76
2023/01/14 04:30:25;;;;;;;29.83;3.97;;;;;;;5.85;100.00;101266.56;5244183;28;20028;-76
2023/01/14 04:32:55;;;;;;;27.95;3.78;;;;;;;5.85;100.00;101256.75;5244020;28;20028;-76
2023/01/14 04:35:26;;;;;;;18.42;4.68;;;;;;;5.90;100.00;101251.03;5244243;28;20103;-76
2023/01/14 04:37:56;;;;;;;35.47;5.50;;;;;;;5.92;100.00;101236.69;5243642;28;20100;-76
2023/01/14 04:40:27;;;;;;;24.77;4.22;;;;;;;6.00;100.00;101237.84;5243621;28;20445;-76
2023/01/14 04:42:57;;;;;;;33.22;3.83;;;;;;;5.96;100.00;101231.94;5243813;28;20028;-76
2023/01/14 04:45:28;;;;;;;30.33;3.90;;;;;;;5.99;100.00;101222.84;5244007;28;20043;-76
2023/01/14 04:47:58;;;;;;;26.50;4.03;;;;;;;6.01;100.00;101221.72;5243709;28;20025;-76
2023/01/14 04:50:33;;;;;;;45.35;6.55;;;;;;;6.03;100.00;101230.47;5243817;28;20453;-76
2023/01/14 04:53:05;;;;;;;28.05;5.25;;;;;;;6.05;100.00;101219.66;5225762;28;20113;-76
2023/01/14 04:55:38;;;;;;;33.15;4.93;;;;;;;6.09;100.00;101210.47;5229990;28;20056;-76
2023/01/14 04:58:10;;;;;;;28.10;4.07;;;;;;;6.09;100.00;101210.47;5229368;28;20613;-76
2023/01/14 05:00:42;;;;;;;35.20;4.32;;;;;;;6.12;100.00;101213.69;5260818;28;20029;-76
2023/01/14 05:03:14;;;;;;;26.98;4.22;;;;;;;6.14;100.00;101200.25;5229217;28;20118;-76
2023/01/14 05:05:45;;;;;;;38.08;3.80;;;;;;;6.15;100.00;101200.13;5247517;28;20496;-76
2023/01/14 05:08:15;;;;;;;29.00;4.22;;;;;;;6.16;100.00;101188.50;5246916;28;20090;-76
2023/01/14 05:10:49;;;;;;;24.27;4.90;;;;;;;6.20;100.00;101194.41;5247308;28;20032;-76
2023/01/14 05:13:19;;;;;;;35.70;3.90;;;;;;;6.22;100.00;101184.47;5247084;28;20105;-76
2023/01/14 05:15:50;;;;;;;31.98;3.97;;;;;;;6.23;100.00;101183.50;5246920;28;20103;-77
2023/01/14 05:18:21;;;;;;;28.98;3.92;;;;;;;6.25;100.00;101178.03;5246656;28;20073;-76
2023/01/14 05:20:51;;;;;;;26.20;3.90;;;;;;;6.26;100.00;101163.72;5247076;28;20059;-76
2023/01/14 05:23:22;;;;;;;26.40;4.28;;;;;;;6.33;100.00;101168.44;5246841;28;20115;-77
2023/01/14 05:25:52;;;;;;;30.05;5.80;;;;;;;6.29;100.00;101164.31;5260893;28;20031;-76
2023/01/14 05:28:23;;;;;;;27.63;4.15;;;;;;;6.30;100.00;101150.03;5246704;28;20511;-76
2023/01/14 05:30:53;;;;;;;27.48;4.95;;;;;;;6.30;100.00;101150.03;5246773;28;20099;-76
2023/01/14 05:33:24;;;;;;;37.58;4.35;;;;;;;6.44;100.00;101141.69;5247033;28;20025;-76
2023/01/14 05:35:55;;;;;;;28.20;3.47;;;;;;;6.47;100.00;101133.41;5260684;28;20024;-76
2023/01/14 05:38:27;;;;;;;32.05;4.65;;;;;;;6.48;100.00;101126.28;5228793;28;20036;-76
2023/01/14 05:40:57;;;;;;;31.27;4.60;;;;;;;6.45;100.00;101130.03;5246342;28;20111;-76
2023/01/14 05:46:17;;;;;;;20.98;3.72;;;;;;;6.45;100.00;101114.06;5233784;28;20024;-76
2023/01/14 05:48:48;;;;;;;30.33;5.32;;;;;;;6.40;100.00;101102.94;5246429;28;20032;-76
2023/01/14 05:51:18;;;;;;;35.10;3.35;;;;;;;6.45;100.00;101100.72;5255689;28;20069;-76
2023/01/14 05:53:49;;;;;;;24.05;3.15;;;;;;;6.42;100.00;101095.66;5251310;28;20058;-77
2023/01/14 05:56:19;;;;;;;26.63;3.70;;;;;;;6.43;100.00;101085.88;5246674;28;20095;-77
2023/01/14 05:58:51;;;;;;;23.23;3.63;;;;;;;6.40;100.00;101083.47;5250792;28;20519;-77
2023/01/14 06:07:00;;;;;;;26.10;4.43;;;;;;;6.38;100.00;101070.28;5246182;28;20021;-77
2023/01/14 06:09:30;;;;;;;28.60;4.53;;;;;;;6.37;100.00;101063.22;5246117;28;20404;-77
2023/01/14 06:12:04;;;;;;;26.92;5.07;;;;;;;6.35;100.00;101051.88;5228083;28;20024;-77
2023/01/14 06:14:34;;;;;;;24.15;4.20;;;;;;;6.33;100.00;101043.19;5228270;28;20028;-76
2023/01/14 06:17:08;;;;;;;21.95;3.97;;;;;;;6.36;100.00;101048.22;5246064;28;20021;-76
2023/01/14 06:19:39;;;;;;;19.55;4.25;;;;;;;6.42;100.00;101045.03;5228074;28;20036;-77
2023/01/14 06:22:09;;;;;;;39.35;4.18;;;;;;;6.41;100.00;101035.34;5228348;28;20024;-77
2023/01/14 06:24:40;;;;;;;29.13;3.95;;;;;;;6.42;100.00;101028.19;5259383;28;20101;-77
2023/01/14 06:27:10;;;;;;;19.58;3.42;;;;;;;6.40;100.00;101014.16;5245677;28;20036;-77
2023/01/14 06:29:41;;;;;;;20.45;5.28;;;;;;;6.42;100.00;101006.88;5245599;28;20035;-77
2023/01/14 06:32:11;;;;;;;17.95;3.53;;;;;;;6.43;100.00;101004.09;5245939;28;20021;-77
2023/01/14 06:34:42;;;;;;;13.80;3.20;;;;;;;6.44;100.00;101000.44;5245701;28;20032;-77
2023/01/14 06:37:13;;;;;;;19.48;3.83;;;;;;;6.51;100.00;100983.91;5232605;28;20136;-77
2023/01/14 06:39:44;;;;;;;18.10;3.17;;;;;;;6.52;100.00;100975.75;5237774;28;20542;-77
2023/01/14 06:42:14;;;;;;;19.52;3.20;;;;;;;6.56;100.00;100963.84;5244120;28;20103;-77
2023/01/14 06:44:45;;;;;;;15.88;3.28;;;;;;;6.58;100.00;100969.06;5245044;28;20141;-77
2023/01/14 06:47:15;;;;;;;20.67;2.95;;;;;;;6.57;100.00;100967.34;5243938;28;20021;-77
2023/01/14 06:49:46;;;;;;;22.67;3.10;;;;;;;6.60;100.00;100954.59;5254231;28;20020;-77
2023/01/14 06:52:16;;;;;;;15.27;3.85;;;;;;;6.68;100.00;100956.59;5248248;28;20055;-77
2023/01/14 06:54:47;;;;;;;14.10;3.60;;;;;;;6.73;100.00;100946.34;5244749;28;20028;-78
2023/01/14 06:57:17;;;;;;;19.25;4.70;;;;;;;6.75;100.00;100939.88;5240110;28;20661;-77
2023/01/14 06:59:48;;;;;;;22.60;3.88;;;;;;;6.79;100.00;100932.47;5239369;28;20036;-77
2023/01/14 07:02:19;;;;;;;14.90;3.05;;;;;;;6.84;100.00;100924.88;5238500;28;20020;-78
2023/01/14 07:04:49;;;;;;;11.85;3.67;;;;;;;6.87;100.00;100921.06;5220085;28;20061;-77
2023/01/14 07:07:20;;;;;;;14.15;3.33;;;;;;;6.95;100.00;100918.56;5226943;28;20017;-77
2023/01/14 07:09:50;;;;;;;15.80;3.10;;;;;;;7.02;100.00;100914.31;5246213;28;20028;-77
2023/01/14 07:12:21;;;;;;;20.70;4.35;;;;;;;7.04;100.00;100898.19;5255788;28;20107;-77
2023/01/14 07:14:52;;;;;;;20.80;2.95;;;;;;;7.01;100.00;100892.16;5248060;28;20024;-77
2023/01/14 07:17:22;;;;;;;19.58;4.18;;;;;;;7.06;100.00;100888.22;5253941;28;20024;-77
2023/01/14 07:19:53;;;;;;;17.75;3.55;;;;;;;7.08;100.00;100891.56;5226205;28;20023;-77
2023/01/14 07:22:24;;;;;;;15.25;2.90;;;;;;;7.12;100.00;100884.97;5237878;28;20644;-78
2023/01/14 07:24:54;;;;;;;12.45;2.30;;;;;;;7.14;100.00;100867.84;5246351;28;20031;-77
2023/01/14 07:27:24;;;;;;;12.50;2.22;;;;;;;7.19;100.00;100870.09;5244442;28;20016;-76
2023/01/14 07:29:56;;;;;;;15.32;2.47;;;;;;;7.19;100.00;100849.59;5243690;28;20408;-77
2023/01/14 07:32:26;;;;;;;8.57;2.13;;;;;;;7.22;100.00;100856.44;5243344;28;20033;-77
2023/01/14 07:34:57;;;;;;;15.82;2.28;;;;;;;7.28;100.00;100842.56;5244575;28;20374;-77
2023/01/14 07:37:27;;;;;;;12.18;2.40;;;;;;;7.33;100.00;100826.06;5243803;28;20395;-76
2023/01/14 07:39:58;;;;;;;8.75;2.53;;;;;;;7.38;100.00;100826.47;5244710;28;20507;-76
2023/01/14 07:42:28;;;;;;;8.63;1.88;;;;;;;7.43;100.00;100825.09;5244715;28;20025;-77
2023/01/14 07:44:59;;;;;;;11.93;3.17;;;;;;;7.48;100.00;100813.94;5241810;28;20036;-77
2023/01/14 07:47:29;;;;;;;9.75;2.10;;;;;;;7.51;100.00;100805.66;5243423;28;20465;-77
2023/01/14 07:50:00;;;;;;;4.13;1.83;;;;;;;7.55;100.00;100798.19;5244109;28;20697;-77
2023/01/14 07:52:30;;;;;;;8.52;1.65;;;;;;;7.55;100.00;100783.00;5244394;28;20032;-77
2023/01/14 07:55:01;;;;;;;10.25;1.85;;;;;;;7.62;100.00;100780.56;5244448;28;20020;-77
2023/01/14 07:57:31;;;;;;;9.05;1.80;;;;;;;7.63;100.00;100780.44;5246399;28;20044;-77
2023/01/14 08:00:03;;;;;;;10.07;1.88;;;;;;;7.66;100.00;100752.59;5257491;28;20361;-77
2023/01/14 08:02:35;;;;;;;7.30;1.85;;;;;;;7.73;100.00;100751.00;5244461;28;20672;-77
2023/01/14 08:05:06;;;;;;;12.18;2.60;;;;;;;7.78;100.00;100748.72;5244405;28;20027;-77
2023/01/14 08:07:36;;;;;;;19.10;2.20;;;;;;;7.82;100.00;100735.91;5226226;28;20492;-77
2023/01/14 08:10:08;;;;;;;11.32;2.00;;;;;;;7.84;100.00;100734.78;5244460;28;20024;-77
2023/01/14 08:12:38;;;;;;;12.65;1.90;;;;;;;7.89;100.00;100721.81;5244385;28;20024;-77
2023/01/14 08:15:11;;;;;;;8.07;2.10;;;;;;;7.91;100.00;100716.31;5230999;28;20028;-77
2023/01/14 08:17:42;;;;;;;11.38;2.05;;;;;;;7.90;100.00;100714.63;5253533;28;20024;-77
2023/01/14 08:20:13;;;;;;;12.45;2.20;;;;;;;7.90;100.00;100704.78;5247690;28;20158;-78
2023/01/14 08:22:43;;;;;;;7.43;1.80;;;;;;;7.89;100.00;100702.28;5248309;28;20028;-78
2023/01/14 08:25:14;;;;;;;10.00;2.08;;;;;;;7.90;100.00;100686.09;5248093;28;20135;-77
2023/01/14 08:27:44;;;;;;;15.05;2.42;;;;;;;7.90;100.00;100694.09;5232910;28;20102;-78
2023/01/14 08:30:15;;;;;;;11.23;2.10;;;;;;;7.90;100.00;100687.91;5256432;28;20024;-78
2023/01/14 08:32:49;;;;;;;11.15;2.35;;;;;;;7.90;100.00;100669.22;5256087;28;20103;-78
2023/01/14 08:35:19;;;;;;;14.95;2.65;;;;;;;7.88;100.00;100660.50;5254509;28;20017;-78
2023/01/14 08:37:50;;;;;;;8.45;1.85;;;;;;;7.87;100.00;100659.66;5237876;28;20020;-78
2023/01/14 08:40:20;;;;;;;16.48;2.33;;;;;;;7.90;100.00;100650.53;5257256;28;20048;-78
2023/01/14 08:42:51;;;;;;;13.95;2.40;;;;;;;7.87;100.00;100629.44;5256462;28;20021;-78
2023/01/14 08:45:21;;;;;;;16.58;2.78;;;;;;;7.92;100.00;100625.31;5253365;28;20020;-78
2023/01/14 08:47:51;;;;;;;9.10;2.20;;;;;;;7.92;100.00;100603.94;5260917;28;20045;-78
2023/01/14 08:50:22;;;;;;;24.05;2.80;;;;;;;7.97;100.00;100600.81;5259976;28;20028;-78
2023/01/14 08:52:52;;;;;;;16.65;2.40;;;;;;;7.97;100.00;100598.16;5255583;28;20031;-77
2023/01/14 08:55:23;;;;;;;19.98;2.88;;;;;;;7.98;100.00;100587.34;5246449;28;20098;-77
2023/01/14 08:57:53;;;;;;;11.38;2.42;;;;;;;7.93;100.00;100589.63;5247443;28;20017;-78
2023/01/14 09:00:24;;;;;;;12.38;2.00;;;;;;;7.96;100.00;100567.94;5243330;28;20380;-78
2023/01/14 09:02:55;;;;;;;11.63;2.05;;;;;;;7.99;100.00;100550.75;5236015;28;20033;-78
2023/01/14 09:05:26;;;;;;;20.95;2.42;;;;;;;7.99;100.00;100556.09;5246017;28;20043;-78
2023/01/14 09:19:33;;;;;;;19.13;2.63;;;;;;;8.11;100.00;100536.13;5130575;28;20039;-78
2023/01/14 09:22:05;;;;;;;17.75;2.40;;;;;;;8.11;100.00;100522.78;5221425;28;20128;-79
2023/01/14 09:24:35;;;;;;;11.18;2.75;;;;;;;8.16;100.00;100520.47;5232025;28;20065;-77
2023/01/14 09:27:06;;;;;;;24.40;2.53;;;;;;;8.19;100.00;100532.69;5259093;28;20092;-77
2023/01/14 09:29:36;;;;;;;18.17;2.63;;;;;;;8.22;100.00;100535.84;5257500;28;20445;-78
2023/01/14 09:32:11;;;;;;;12.20;2.25;;;;;;;8.27;100.00;100527.38;5258497;28;20024;-77
2023/01/14 09:34:47;;;;;;;9.37;1.90;;;;;;;8.35;100.00;100532.78;5263711;28;20099;-78
2023/01/14 09:37:20;;;;;;;13.18;1.80;;;;;;;8.36;100.00;100523.78;5233645;28;20021;-78
2023/01/14 09:39:51;;;;;;;11.25;2.05;;;;;;;8.38;100.00;100513.75;5233008;28;20028;-78
2023/01/14 09:42:40;;;;;;;9.02;1.65;;;;;;;8.42;100.00;100493.72;5251896;28;20545;-79
2023/01/14 09:45:31;;;;;;;11.00;1.95;;;;;;;8.43;100.00;100507.94;5251869;28;20104;-78
2023/01/14 09:48:16;;;;;;;12.43;2.03;;;;;;;8.44;100.00;100486.41;5240560;28;20063;-79
2023/01/14 09:51:02;;;;;;;10.98;1.52;;;;;;;8.46;100.00;100476.38;5253386;28;20040;-78
2023/01/14 09:54:04;;;;;;;8.02;1.67;;;;;;;8.51;100.00;100468.69;5253127;28;20028;-78
2023/01/14 09:56:39;;;;;;;4.90;1.48;;;;;;;8.53;100.00;100463.19;5243671;28;20055;-79
2023/01/14 09:59:22;;;;;;;;;;;;;;;8.59;100.00;100443.00;5235375;28;20120;-78
2023/01/14 10:02:19;;;;;;;5.07;1.05;;;;;;;8.61;100.00;100444.50;5236841;28;19912;-79
2023/01/14 10:05:18;;;;;;;8.48;1.00;;;;;;;8.57;100.00;100433.28;5237996;28;20077;-79
2023/01/14 10:07:49;;;;;;;9.88;1.33;;;;;;;8.57;100.00;100419.09;5238372;28;20086;-78
2023/01/14 10:10:24;;;;;;;5.38;1.50;;;;;;;8.59;100.00;100402.91;5237815;28;20063;-79
2023/01/14 10:12:58;;;;;;;8.27;1.45;;;;;;;8.63;100.00;100402.38;5238524;28;20032;-79
2023/01/14 10:15:49;;;;;;;5.85;1.23;;;;;;;8.74;100.00;100395.91;5237976;28;20028;-79
2023/01/14 10:18:26;;;;;;;5.63;1.38;;;;;;;8.71;100.00;100414.94;5237606;28;20051;-78
2023/01/14 10:21:05;;;;;;;6.30;1.13;;;;;;;8.75;100.00;100395.72;5238326;28;20028;-78
2023/01/14 10:23:39;;;;;;;3.78;0.98;;;;;;;8.75;100.00;100402.91;5225124;28;20024;-78
2023/01/14 10:26:13;;;;;;;6.27;1.10;;;;;;;8.78;100.00;100395.38;5255798;28;20108;-79
2023/01/14 10:28:50;;;;;;;7.88;0.93;;;;;;;8.78;100.00;100378.50;5237878;28;20065;-78
2023/01/14 10:31:29;;;;;;;9.45;1.20;;;;;;;8.78;100.00;100362.44;5275128;28;20053;-78
2023/01/14 10:34:00;;;;;;;5.50;1.17;;;;;;;8.83;100.00;100376.16;5259705;28;20128;-77
2023/01/14 10:36:31;;;;;;;4.63;1.05;;;;;;;8.85;100.00;100357.28;5239060;28;20534;-79
2023/01/14 10:39:02;;;;;;;1.75;0.80;;;;;;;8.85;100.00;100355.44;5270740;28;20028;-78
2023/01/14 10:41:51;;;;;;;5.22;0.80;;;;;;;8.85;100.00;100355.44;5249465;28;20035;-78
2023/01/14 10:44:27;;;;;;;10.93;1.38;;;;;;;8.87;100.00;100342.72;5257227;28;20024;-79
2023/01/14 10:47:03;;;;;;;3.55;1.00;;;;;;;8.84;100.00;100348.44;5237137;28;20100;-78
2023/01/14 10:49:39;;;;;;;8.45;1.20;;;;;;;8.86;100.00;100348.25;5228266;28;20028;-79
2023/01/14 10:52:23;;;;;;;4.25;0.88;;;;;;;8.82;100.00;100343.22;5234019;28;20035;-77
2023/01/14 10:55:06;;;;;;;10.73;1.02;;;;;;;8.87;100.00;100324.00;5249244;28;20099;-78
2023/01/14 10:58:05;;;;;;;3.22;0.80;;;;;;;8.93;100.00;100330.53;5244388;28;20054;-78
2023/01/14 11:00:41;;;;;;;5.95;0.90;;;;;;;8.97;100.00;100330.03;5261948;28;20016;-78
2023/01/14 11:03:23;;;;;;;3.88;0.88;;;;;;;9.05;100.00;100313.13;5247545;28;20025;-79
2023/01/14 11:06:07;;;;;;;3.80;1.00;;;;;;;8.97;100.00;100297.09;5231915;28;20021;-78
2023/01/14 11:08:40;;;;;;;4.43;0.88;;;;;;;9.01;100.00;100290.41;5271771;28;20087;-78
2023/01/14 11:11:17;;;;;;;2.47;0.93;;;;;;;9.00;100.00;100270.84;5243119;28;20484;-79
2023/01/14 11:13:50;;;;;;;5.00;0.90;;;;;;;9.09;100.00;100274.34;5234476;28;20048;-79
2023/01/14 11:16:21;;;;;;;1.45;0.50;;;;;;;9.11;100.00;100260.78;5244782;28;20012;-78
2023/01/14 11:18:55;;;;;;;3.08;0.95;;;;;;;9.18;100.00;100262.59;5241271;28;20511;-79
2023/01/14 11:21:49;;;;;;;2.83;0.90;;;;;;;9.19;100.00;100261.59;5243307;28;20020;-79
2023/01/14 11:24:30;;;;;;;3.03;1.30;;;;;;;9.16;100.00;100245.03;5229826;28;20365;-79
2023/01/14 11:27:12;;;;;;;2.33;0.60;;;;;;;9.21;100.00;100253.41;5249077;28;20107;-78
2023/01/14 11:29:58;;;;;;;3.83;0.70;;;;;;;9.20;100.00;100251.72;5262313;28;20056;-78
2023/01/14 11:32:35;;;;;;;1.88;0.63;;;;;;;9.24;100.00;100232.47;5229665;28;20108;-78
2023/01/14 11:35:20;;;;;;;3.65;0.70;;;;;;;9.25;100.00;100219.94;5257525;28;20032;-79
2023/01/14 11:37:56;;;;;;;2.70;0.80;;;;;;;9.38;100.00;100214.84;5247191;28;20070;-79
2023/01/14 11:43:22;;;;;;;2.83;1.20;;;;;;;9.51;100.00;100215.13;5237082;28;20029;-78
2023/01/14 11:46:06;;;;;;;3.03;0.70;;;;;;;9.48;100.00;100217.31;5223330;28;20650;-79
2023/01/14 11:48:38;;;;;;;1.20;0.55;;;;;;;9.48;100.00;100204.75;5245251;28;20403;-79
2023/01/14 11:51:21;;;;;;;2.03;1.03;;;;;;;9.51;100.00;100185.66;5246141;28;20025;-79
2023/01/14 11:53:56;;;;;;;2.20;0.60;;;;;;;9.54;100.00;100184.50;5249067;28;20020;-78
2023/01/14 11:56:35;;;;;;;1.98;0.77;;;;;;;9.58;100.00;100177.75;5252182;28;20029;-79
2023/01/14 11:59:20;;;;;;;3.20;0.68;;;;;;;9.61;100.00;100177.41;5232388;28;20051;-78
2023/01/14 12:02:11;;;;;;;1.85;0.57;;;;;;;9.68;100.00;100146.22;5234518;28;20025;-79
2023/01/14 12:04:51;;;;;;;2.28;0.52;;;;;;;9.73;100.00;100138.50;5247626;28;20028;-79
2023/01/14 12:07:43;;;;;;;3.22;0.65;;;;;;;9.76;100.00;100151.53;5251702;28;20031;-79
2023/01/14 12:10:37;;;;;;;2.40;0.60;;;;;;;9.78;100.00;100132.59;5244083;28;20051;-79
2023/01/14 12:16:55;;;;;;;1.08;0.43;;;;;;;9.84;100.00;100103.28;5267729;28;20391;-78
2023/01/14 12:19:51;;;;;;;3.30;0.55;;;;;;;9.82;100.00;100083.84;5221513;28;20043;-78
2023/01/14 12:22:46;;;;;;;2.70;0.95;;;;;;;9.84;100.00;100089.06;5265717;28;20048;-79
2023/01/14 12:25:38;;;;;;;2.60;0.67;;;;;;;9.84;100.00;100081.84;5219466;28;20495;-79
2023/01/14 12:28:50;;;;;;;4.20;1.15;;;;;;;9.86;100.00;100079.81;5232299;28;20109;-79